createdAt,value
2018-05-11T00:01:42.375Z,15.60
2018-05-11T00:02:41.961Z,17.10
2018-05-11T00:04:35.707Z,17.90
2018-05-11T00:05:35.726Z,17.10
2018-05-11T00:07:29.108Z,17.90
2018-05-11T00:08:29.333Z,14.50
2018-05-11T00:10:37.127Z,15.60
2018-05-11T00:11:36.978Z,14.60
2018-05-11T00:13:30.985Z,15.90
2018-05-11T00:14:30.368Z,15.60
2018-05-11T00:16:23.831Z,15.60
2018-05-11T00:17:23.799Z,16.60
2018-05-11T00:19:17.089Z,15.30
2018-05-11T00:20:17.116Z,18.70
2018-05-11T00:22:10.504Z,14.80
2018-05-11T00:23:10.535Z,16.20
2018-05-11T00:25:03.900Z,13.60
2018-05-11T00:26:03.853Z,12.30
2018-05-11T00:27:57.281Z,14.80
2018-05-11T00:28:57.288Z,16.10
2018-05-11T00:30:51.190Z,15.00
2018-05-11T00:31:50.650Z,12.30
2018-05-11T00:33:44.583Z,19.20
2018-05-11T00:34:44.032Z,15.80
2018-05-11T00:36:37.847Z,15.80
2018-05-11T00:37:37.011Z,14.00
2018-05-11T00:39:30.772Z,17.10
2018-05-11T00:40:30.400Z,19.80
2018-05-11T00:42:24.147Z,12.90
2018-05-11T00:43:24.125Z,13.90
2018-05-11T00:45:17.518Z,15.10
2018-05-11T00:46:17.117Z,15.00
2018-05-11T00:48:11.369Z,14.90
2018-05-11T00:49:10.433Z,17.30
2018-05-11T00:51:04.238Z,16.20
2018-05-11T00:52:03.773Z,15.50
2018-05-11T00:53:57.629Z,15.50
2018-05-11T00:54:57.172Z,16.00
2018-05-11T00:56:50.915Z,15.50
2018-05-11T00:57:50.965Z,17.80
2018-05-11T00:59:44.321Z,16.60
2018-05-11T01:00:44.323Z,19.80
2018-05-11T01:02:37.659Z,17.00
2018-05-11T01:03:37.300Z,18.50
2018-05-11T01:05:31.003Z,18.30
2018-05-11T01:06:31.035Z,17.20
2018-05-11T01:08:24.419Z,17.30
2018-05-11T01:09:24.382Z,16.70
2018-05-11T01:11:17.724Z,17.40
2018-05-11T01:12:17.337Z,17.30
2018-05-11T01:14:13.653Z,18.90
2018-05-11T01:15:13.582Z,16.30
2018-05-11T01:17:06.966Z,18.00
2018-05-11T01:18:06.517Z,19.60
2018-05-11T01:20:00.444Z,20.00
2018-05-11T01:21:00.351Z,21.20
2018-05-11T01:22:53.716Z,22.00
2018-05-11T01:23:53.327Z,20.30
2018-05-11T01:25:47.608Z,21.10
2018-05-11T01:26:46.693Z,20.00
2018-05-11T01:28:41.099Z,18.20
2018-05-11T01:29:40.932Z,16.90
2018-05-11T01:31:33.825Z,18.00
2018-05-11T01:32:33.777Z,20.20
2018-05-11T01:34:27.636Z,24.10
2018-05-11T01:35:27.307Z,21.40
2018-05-11T01:37:20.551Z,20.40
2018-05-11T01:38:20.185Z,21.40
2018-05-11T01:40:13.432Z,17.90
2018-05-11T01:41:14.422Z,17.60
2018-05-11T01:43:06.888Z,19.70
2018-05-11T01:44:06.445Z,21.70
2018-05-11T01:46:00.722Z,20.70
2018-05-11T01:46:59.799Z,25.70
2018-05-11T01:48:53.605Z,24.50
2018-05-11T01:49:53.219Z,21.20
2018-05-11T01:51:46.963Z,22.20
2018-05-11T01:52:46.967Z,24.10
2018-05-11T01:54:39.744Z,21.50
2018-05-11T01:55:39.825Z,24.80
2018-05-11T01:57:33.204Z,24.60
2018-05-11T01:58:32.754Z,21.70
2018-05-11T02:00:26.554Z,21.20
2018-05-11T02:01:26.448Z,21.40
2018-05-11T02:03:19.930Z,19.70
2018-05-11T02:04:20.380Z,17.40
2018-05-11T02:06:32.853Z,21.30
2018-05-11T02:07:33.701Z,22.70
2018-05-11T02:09:25.478Z,21.00
2018-05-11T02:10:24.983Z,21.40
2018-05-11T02:12:18.814Z,23.80
2018-05-11T02:13:18.619Z,20.70
2018-05-11T02:15:12.257Z,23.50
2018-05-11T02:16:12.778Z,23.70
2018-05-11T02:18:05.574Z,24.30
2018-05-11T02:20:19.559Z,23.60
2018-05-11T02:21:18.591Z,25.20
2018-05-11T02:23:12.256Z,24.30
2018-05-11T02:24:12.175Z,23.30
2018-05-11T02:26:05.615Z,26.60
2018-05-11T02:27:06.175Z,24.10
2018-05-11T02:28:58.963Z,25.50
2018-05-11T02:29:58.980Z,28.50
2018-05-11T02:31:52.300Z,24.70
2018-05-11T02:32:51.958Z,25.60
2018-05-11T02:34:45.687Z,28.80
2018-05-11T02:35:46.041Z,34.60
2018-05-11T02:37:40.576Z,26.40
2018-05-11T02:38:40.241Z,25.30
2018-05-11T02:40:33.355Z,27.70
2018-05-11T02:41:33.454Z,29.70
2018-05-11T02:43:26.718Z,24.50
2018-05-11T02:44:26.352Z,27.60
2018-05-11T02:46:20.122Z,24.90
2018-05-11T02:47:19.767Z,26.80
2018-05-11T02:49:14.404Z,29.60
2018-05-11T02:50:14.513Z,30.80
2018-05-11T02:52:12.358Z,23.00
2018-05-11T02:53:12.349Z,23.70
2018-05-11T02:55:05.679Z,26.20
2018-05-11T02:56:05.301Z,26.50
2018-05-11T02:57:59.227Z,25.10
2018-05-11T02:58:58.685Z,28.80
2018-05-11T03:00:56.972Z,25.00
2018-05-11T03:01:56.918Z,24.70
2018-05-11T03:03:49.804Z,26.70
2018-05-11T03:04:49.445Z,25.40
2018-05-11T03:06:43.176Z,30.10
2018-05-11T03:07:42.794Z,27.70
2018-05-11T03:09:36.579Z,29.20
2018-05-11T03:10:36.227Z,29.40
2018-05-11T03:12:29.906Z,28.10
2018-05-11T03:13:29.505Z,29.40
2018-05-11T03:15:38.000Z,27.40
2018-05-11T03:16:37.597Z,26.70
2018-05-11T03:18:31.426Z,26.50
2018-05-11T03:19:31.283Z,28.50
2018-05-11T03:21:24.623Z,29.70
2018-05-11T03:22:24.250Z,27.60
2018-05-11T03:24:18.034Z,26.30
2018-05-11T03:25:17.645Z,25.60
2018-05-11T03:27:13.096Z,28.90
2018-05-11T03:28:12.531Z,28.00
2018-05-11T03:30:05.701Z,26.80
2018-05-11T03:31:05.321Z,29.20
2018-05-11T03:32:59.134Z,26.90
2018-05-11T03:33:58.688Z,30.80
2018-05-11T03:35:52.478Z,30.10
2018-05-11T03:36:52.049Z,28.40
2018-05-11T03:38:45.803Z,27.30
2018-05-11T03:39:45.418Z,27.70
2018-05-11T03:41:39.682Z,29.30
2018-05-11T03:42:38.775Z,31.30
2018-05-11T03:44:32.565Z,31.80
2018-05-11T03:45:32.132Z,30.80
2018-05-11T03:47:26.451Z,29.40
2018-05-11T03:48:25.955Z,27.00
2018-05-11T03:50:19.335Z,25.30
2018-05-11T03:51:18.962Z,31.20
2018-05-11T03:53:12.661Z,28.90
2018-05-11T03:54:12.237Z,30.80
2018-05-11T03:56:05.976Z,28.70
2018-05-11T03:57:05.560Z,25.10
2018-05-11T03:59:26.140Z,27.90
2018-05-11T04:00:26.462Z,33.90
2018-05-11T04:02:19.790Z,31.40
2018-05-11T04:03:19.409Z,30.90
2018-05-11T04:05:13.220Z,34.00
2018-05-11T04:06:12.752Z,36.40
2018-05-11T04:08:06.472Z,29.00
2018-05-11T04:09:06.717Z,30.50
2018-05-11T04:10:59.753Z,30.40
2018-05-11T04:11:59.536Z,31.50
2018-05-11T04:13:55.463Z,30.50
2018-05-11T04:14:55.400Z,29.60
2018-05-11T04:16:49.016Z,30.70
2018-05-11T04:17:48.769Z,31.50
2018-05-11T04:19:42.379Z,26.20
2018-05-11T04:20:42.200Z,27.90
2018-05-11T04:22:35.761Z,29.00
2018-05-11T04:23:35.500Z,30.80
2018-05-11T04:25:29.276Z,31.60
2018-05-11T04:26:29.139Z,29.10
2018-05-11T04:28:49.146Z,30.70
2018-05-11T04:29:48.777Z,26.00
2018-05-11T04:31:42.426Z,31.20
2018-05-11T04:32:41.712Z,30.10
2018-05-11T04:34:35.218Z,28.70
2018-05-11T04:35:34.986Z,27.00
2018-05-11T04:37:28.865Z,27.90
2018-05-11T04:38:28.781Z,29.00
2018-05-11T04:40:22.149Z,29.70
2018-05-11T04:41:22.131Z,25.00
2018-05-11T04:43:15.520Z,25.40
2018-05-11T04:44:15.520Z,27.30
2018-05-11T04:46:09.494Z,28.00
2018-05-11T04:47:08.639Z,27.50
2018-05-11T04:49:01.817Z,28.70
2018-05-11T04:50:01.787Z,30.00
2018-05-11T04:51:54.842Z,31.90
2018-05-11T04:52:54.658Z,29.90
2018-05-11T04:54:48.041Z,30.10
2018-05-11T04:55:48.017Z,27.00
2018-05-11T04:57:41.138Z,31.60
2018-05-11T04:58:42.597Z,28.80
2018-05-11T05:00:34.211Z,28.70
2018-05-11T05:01:36.335Z,24.10
2018-05-11T05:03:27.465Z,24.00
2018-05-11T05:04:27.528Z,30.80
2018-05-11T05:06:25.327Z,25.90
2018-05-11T05:07:25.029Z,30.40
2018-05-11T05:09:17.914Z,29.30
2018-05-11T05:10:17.868Z,29.80
2018-05-11T05:12:11.228Z,29.40
2018-05-11T05:13:11.466Z,25.40
2018-05-11T05:15:04.795Z,23.50
2018-05-11T05:16:04.092Z,24.70
2018-05-11T05:17:58.835Z,24.60
2018-05-11T05:18:57.496Z,22.80
2018-05-11T05:20:50.857Z,22.00
2018-05-11T05:21:50.535Z,21.30
2018-05-11T05:23:44.204Z,25.90
2018-05-11T05:24:44.083Z,28.00
2018-05-11T05:26:37.562Z,24.10
2018-05-11T05:27:37.761Z,23.50
2018-05-11T05:29:30.116Z,21.80
2018-05-11T05:30:30.007Z,26.80
2018-05-11T05:32:23.846Z,22.60
2018-05-11T05:33:23.583Z,27.60
2018-05-11T05:35:17.021Z,20.70
2018-05-11T05:36:16.704Z,24.30
2018-05-11T05:38:10.905Z,22.30
2018-05-11T05:39:10.026Z,25.30
2018-05-11T05:41:03.775Z,20.70
2018-05-11T05:42:03.446Z,23.30
2018-05-11T05:43:56.695Z,19.80
2018-05-11T05:44:56.646Z,22.90
2018-05-11T05:46:49.964Z,20.90
2018-05-11T05:47:49.643Z,24.70
2018-05-11T05:49:45.569Z,22.80
2018-05-11T05:50:44.904Z,21.00
2018-05-11T05:52:36.871Z,25.20
2018-05-11T05:53:36.694Z,23.40
2018-05-11T05:55:29.961Z,22.10
2018-05-11T05:56:30.570Z,23.70
2018-05-11T05:58:23.643Z,22.10
2018-05-11T05:59:24.140Z,24.60
2018-05-11T06:01:17.185Z,25.70
2018-05-11T06:02:16.258Z,24.00
2018-05-11T06:04:10.724Z,22.60
2018-05-11T06:05:10.554Z,22.50
2018-05-11T06:07:03.414Z,21.30
2018-05-11T06:08:03.017Z,25.80
2018-05-11T06:09:57.787Z,23.20
2018-05-11T06:10:56.902Z,23.70
2018-05-11T06:12:50.681Z,26.90
2018-05-11T06:13:49.938Z,24.00
2018-05-11T06:15:44.183Z,26.70
2018-05-11T06:16:43.212Z,25.40
2018-05-11T06:18:37.019Z,27.30
2018-05-11T06:19:37.455Z,28.70
2018-05-11T06:21:30.884Z,28.80
2018-05-11T06:22:29.984Z,28.70
2018-05-11T06:24:24.694Z,26.10
2018-05-11T06:25:23.664Z,27.70
2018-05-11T06:27:17.120Z,25.90
2018-05-11T06:28:16.795Z,25.30
2018-05-11T06:30:10.501Z,27.00
2018-05-11T06:31:13.138Z,27.30
2018-05-11T06:33:04.697Z,28.70
2018-05-11T06:34:03.694Z,25.50
2018-05-11T06:35:57.667Z,29.30
2018-05-11T06:36:58.535Z,28.20
2018-05-11T06:38:51.457Z,28.80
2018-05-11T06:39:50.979Z,25.50
2018-05-11T06:41:44.703Z,24.90
2018-05-11T06:42:44.560Z,25.00
2018-05-11T06:44:37.665Z,29.50
2018-05-11T06:45:37.729Z,31.50
2018-05-11T06:47:32.167Z,28.00
2018-05-11T06:48:30.754Z,29.00
2018-05-11T06:50:24.962Z,30.60
2018-05-11T06:51:25.445Z,29.90
2018-05-11T06:53:18.485Z,25.00
2018-05-11T06:54:18.407Z,25.10
2018-05-11T06:56:11.920Z,27.70
2018-05-11T06:57:11.778Z,28.50
2018-05-11T06:59:05.718Z,25.00
2018-05-11T07:00:05.617Z,32.60
2018-05-11T07:01:58.583Z,26.00
2018-05-11T07:02:59.035Z,29.00
2018-05-11T07:04:51.906Z,29.80
2018-05-11T07:05:51.878Z,28.10
2018-05-11T07:07:45.660Z,25.80
2018-05-11T07:08:45.271Z,28.60
2018-05-11T07:10:39.730Z,28.50
2018-05-11T07:11:39.601Z,24.90
2018-05-11T07:13:32.637Z,29.10
2018-05-11T07:14:33.103Z,30.60
2018-05-11T07:16:27.067Z,27.90
2018-05-11T07:17:27.580Z,30.30
2018-05-11T07:19:20.657Z,27.40
2018-05-11T07:20:19.664Z,25.50
2018-05-11T07:22:13.992Z,31.10
2018-05-11T07:23:15.049Z,28.80
2018-05-11T07:25:08.346Z,24.70
2018-05-11T07:26:08.768Z,26.60
2018-05-11T07:28:01.694Z,25.70
2018-05-11T07:29:00.582Z,24.40
2018-05-11T07:30:53.998Z,26.60
2018-05-11T07:31:55.069Z,28.40
2018-05-11T07:33:47.982Z,26.60
2018-05-11T07:34:47.479Z,26.90
2018-05-11T07:36:41.457Z,28.00
2018-05-11T07:37:41.830Z,23.80
2018-05-11T07:39:35.208Z,25.80
2018-05-11T07:40:34.178Z,25.70
2018-05-11T07:42:27.525Z,25.00
2018-05-11T07:43:27.899Z,25.30
2018-05-11T07:46:12.607Z,24.70
2018-05-11T07:47:12.048Z,24.20
2018-05-11T07:49:06.087Z,24.70
2018-05-11T07:50:05.947Z,23.90
2018-05-11T07:51:59.858Z,25.50
2018-05-11T07:52:59.779Z,26.90
2018-05-11T07:55:44.678Z,24.30
2018-05-11T07:56:45.134Z,24.30
2018-05-11T07:58:37.975Z,25.10
2018-05-11T07:59:37.440Z,25.90
2018-05-11T08:01:30.924Z,24.00
2018-05-11T08:02:30.557Z,24.90
2018-05-11T08:04:24.312Z,25.50
2018-05-11T08:05:24.632Z,24.00
2018-05-11T08:07:17.992Z,23.60
2018-05-11T08:08:17.269Z,22.00
2018-05-11T08:10:11.085Z,23.30
2018-05-11T08:11:11.564Z,26.20
2018-05-11T08:13:04.789Z,25.20
2018-05-11T08:14:04.515Z,24.00
2018-05-11T08:15:58.569Z,21.30
2018-05-11T08:16:58.019Z,23.10
2018-05-11T08:18:52.028Z,26.70
2018-05-11T08:19:50.440Z,22.30
2018-05-11T08:21:43.930Z,22.10
2018-05-11T08:22:43.833Z,22.50
2018-05-11T08:24:38.349Z,21.70
2018-05-11T08:25:37.274Z,23.60
2018-05-11T08:27:31.632Z,21.90
2018-05-11T08:28:30.066Z,21.80
2018-05-11T08:30:25.983Z,23.30
2018-05-11T08:31:24.594Z,27.00
2018-05-11T08:33:18.046Z,29.00
2018-05-11T08:34:18.574Z,24.50
2018-05-11T08:36:11.875Z,22.90
2018-05-11T08:37:14.916Z,23.00
2018-05-11T08:39:05.775Z,20.70
2018-05-11T08:40:06.137Z,22.50
2018-05-11T08:41:58.193Z,24.00
2018-05-11T08:42:58.573Z,25.20
2018-05-11T08:44:52.100Z,20.90
2018-05-11T08:45:52.313Z,22.20
2018-05-11T08:47:45.179Z,22.80
2018-05-11T08:48:44.835Z,24.90
2018-05-11T08:50:39.014Z,21.30
2018-05-11T08:51:38.547Z,21.10
2018-05-11T08:53:31.375Z,24.90
2018-05-11T08:54:30.963Z,23.80
2018-05-11T08:56:27.332Z,22.40
2018-05-11T08:57:26.073Z,24.60
2018-05-11T08:59:20.654Z,27.40
2018-05-11T09:00:21.124Z,24.50
2018-05-11T09:02:14.952Z,26.40
2018-05-11T09:03:14.141Z,23.30
2018-05-11T09:05:07.672Z,24.40
2018-05-11T09:06:06.714Z,26.90
2018-05-11T09:08:01.043Z,26.40
2018-05-11T09:09:00.552Z,27.70
2018-05-11T09:10:54.511Z,20.50
2018-05-11T09:11:54.509Z,21.10
2018-05-11T09:13:50.223Z,22.10
2018-05-11T09:16:41.243Z,24.70
2018-05-11T09:17:40.413Z,25.60
2018-05-11T09:19:35.198Z,26.00
2018-05-11T09:20:34.138Z,27.00
2018-05-11T09:22:29.417Z,23.40
2018-05-11T09:23:27.605Z,21.60
2018-05-11T09:25:22.131Z,20.60
2018-05-11T09:26:21.288Z,22.90
2018-05-11T09:28:15.190Z,21.80
2018-05-11T09:29:14.163Z,21.60
2018-05-11T09:31:09.780Z,20.20
2018-05-11T09:32:08.445Z,23.10
2018-05-11T09:34:03.305Z,21.20
2018-05-11T09:35:02.242Z,20.30
2018-05-11T09:36:54.648Z,21.80
2018-05-11T09:37:54.089Z,21.60
2018-05-11T09:39:50.323Z,19.60
2018-05-11T09:40:48.618Z,23.20
2018-05-11T09:42:42.073Z,19.00
2018-05-11T09:43:42.555Z,17.40
2018-05-11T09:45:34.693Z,16.20
2018-05-11T09:46:35.852Z,17.20
2018-05-11T09:48:28.725Z,14.60
2018-05-11T09:49:30.429Z,16.10
2018-05-11T09:51:21.529Z,18.30
2018-05-11T09:52:23.761Z,16.90
2018-05-11T09:54:16.064Z,14.90
2018-05-11T09:55:17.142Z,16.60
2018-05-11T09:57:09.456Z,13.80
2018-05-11T09:58:08.496Z,13.70
2018-05-11T10:00:03.992Z,15.80
2018-05-11T10:01:02.008Z,17.10
2018-05-11T10:02:57.059Z,14.60
2018-05-11T10:03:56.783Z,14.60
2018-05-11T10:05:50.553Z,20.90
2018-05-11T10:06:51.534Z,14.50
2018-05-11T10:08:44.670Z,13.50
2018-05-11T10:09:44.773Z,13.20
2018-05-11T10:11:37.503Z,13.20
2018-05-11T10:12:36.977Z,15.20
2018-05-11T10:14:31.015Z,14.20
2018-05-11T10:15:30.428Z,15.80
2018-05-11T10:18:16.496Z,13.30
2018-05-11T10:19:14.637Z,18.10
2018-05-11T10:21:09.194Z,13.20
2018-05-11T10:22:08.416Z,14.90
2018-05-11T10:24:03.229Z,14.20
2018-05-11T10:25:02.328Z,13.10
2018-05-11T10:26:56.092Z,13.80
2018-05-11T10:27:55.520Z,15.00
2018-05-11T10:29:48.819Z,15.60
2018-05-11T10:30:49.665Z,11.10
2018-05-11T10:32:43.310Z,13.20
2018-05-11T10:33:41.488Z,13.60
2018-05-11T10:35:37.194Z,12.00
2018-05-11T10:36:35.093Z,10.70
2018-05-11T10:38:29.172Z,10.00
2018-05-11T10:39:29.074Z,10.20
2018-05-11T10:41:23.778Z,10.30
2018-05-11T10:42:21.322Z,10.30
2018-05-11T10:44:17.276Z,12.00
2018-05-11T10:45:14.931Z,10.90
2018-05-11T10:47:09.082Z,9.70
2018-05-11T10:48:08.158Z,10.10
2018-05-11T10:50:03.618Z,9.10
2018-05-11T10:51:01.640Z,9.50
2018-05-11T10:52:55.837Z,12.00
2018-05-11T10:53:55.154Z,13.80
2018-05-11T10:55:50.641Z,12.50
2018-05-11T10:56:50.025Z,12.50
2018-05-11T10:58:43.026Z,10.80
2018-05-11T10:59:43.415Z,10.90
2018-05-11T11:01:38.718Z,10.60
2018-05-11T11:02:35.452Z,7.40
2018-05-11T11:04:29.263Z,8.70
2018-05-11T11:05:28.120Z,11.90
2018-05-11T11:07:21.973Z,10.00
2018-05-11T11:08:21.371Z,10.50
2018-05-11T11:10:15.681Z,8.10
2018-05-11T11:11:15.256Z,10.60
2018-05-11T11:13:09.050Z,9.50
2018-05-11T11:14:08.174Z,9.60
2018-05-11T11:16:03.004Z,9.30
2018-05-11T11:17:01.890Z,10.60
2018-05-11T11:18:56.382Z,7.70
2018-05-11T11:19:57.071Z,7.60
2018-05-11T11:21:49.383Z,11.10
2018-05-11T11:22:49.027Z,9.40
2018-05-11T11:24:43.813Z,7.90
2018-05-11T11:25:44.502Z,9.90
2018-05-11T11:27:36.063Z,13.00
2018-05-11T11:28:37.736Z,9.90
2018-05-11T11:31:20.595Z,7.90
2018-05-11T11:32:20.550Z,7.10
2018-05-11T11:34:13.366Z,9.50
2018-05-11T11:35:13.339Z,9.30
2018-05-11T11:37:08.065Z,12.90
2018-05-11T11:38:07.264Z,10.90
2018-05-11T11:40:00.901Z,8.10
2018-05-11T11:41:00.531Z,7.70
2018-05-11T11:42:54.501Z,12.60
2018-05-11T11:43:53.727Z,10.30
2018-05-11T11:45:48.342Z,6.60
2018-05-11T11:46:47.532Z,7.50
2018-05-11T11:48:42.142Z,9.10
2018-05-11T11:49:41.397Z,8.20
2018-05-11T11:52:32.070Z,8.30
2018-05-11T11:53:26.971Z,6.80
2018-05-11T11:55:22.073Z,10.00
2018-05-11T11:56:21.099Z,8.90
2018-05-11T11:58:16.415Z,7.70
2018-05-11T11:59:14.960Z,8.60
2018-05-11T12:02:54.623Z,7.40
2018-05-11T12:03:54.614Z,11.80
2018-05-11T12:05:48.119Z,7.80
2018-05-11T12:06:47.689Z,13.20
2018-05-11T12:08:41.635Z,8.10
2018-05-11T12:09:42.636Z,8.10
2018-05-11T12:11:34.466Z,7.00
2018-05-11T12:12:33.584Z,7.80
2018-05-11T12:14:29.299Z,8.90
2018-05-11T12:15:27.463Z,9.60
2018-05-11T12:17:20.795Z,7.60
2018-05-11T12:18:20.386Z,7.10
2018-05-11T12:20:14.237Z,7.00
2018-05-11T12:21:16.874Z,5.60
2018-05-11T12:23:07.570Z,6.60
2018-05-11T12:24:07.503Z,7.20
2018-05-11T12:26:02.427Z,5.30
2018-05-11T12:27:03.928Z,6.80
2018-05-11T12:28:57.247Z,6.60
2018-05-11T12:29:56.029Z,8.20
2018-05-11T12:31:48.904Z,11.20
2018-05-11T12:32:49.360Z,9.90
2018-05-11T12:34:42.305Z,6.10
2018-05-11T12:35:42.285Z,7.90
2018-05-11T12:37:36.635Z,4.30
2018-05-11T12:40:29.106Z,6.90
2018-05-11T12:41:29.565Z,6.00
2018-05-11T12:44:13.652Z,5.30
2018-05-11T12:45:14.034Z,4.70
2018-05-11T12:47:06.962Z,4.80
2018-05-11T12:48:06.633Z,7.30
2018-05-11T12:50:00.266Z,7.40
2018-05-11T12:51:00.303Z,7.00
2018-05-11T12:52:54.288Z,4.80
2018-05-11T12:53:53.754Z,4.50
2018-05-11T12:55:47.728Z,6.60
2018-05-11T12:56:48.182Z,6.50
2018-05-11T12:58:41.122Z,6.70
2018-05-11T12:59:40.708Z,7.60
2018-05-11T13:01:34.467Z,9.70
2018-05-11T13:02:34.032Z,5.90
2018-05-11T13:04:27.828Z,6.80
2018-05-11T13:05:27.757Z,5.00
2018-05-11T13:07:22.173Z,8.30
2018-05-11T13:08:21.224Z,5.00
2018-05-11T13:10:14.676Z,7.10
2018-05-11T13:11:15.091Z,5.00
2018-05-11T13:13:07.996Z,6.00
2018-05-11T13:14:07.982Z,5.40
2018-05-11T13:16:02.297Z,6.90
2018-05-11T13:17:00.960Z,4.60
2018-05-11T13:18:54.925Z,5.40
2018-05-11T13:19:54.736Z,7.90
2018-05-11T13:21:49.445Z,5.80
2018-05-11T13:22:48.147Z,5.50
2018-05-11T13:24:42.026Z,6.90
2018-05-11T13:25:41.536Z,5.40
2018-05-11T13:27:34.958Z,5.60
2018-05-11T13:28:34.572Z,5.50
2018-05-11T13:30:28.425Z,5.10
2018-05-11T13:31:27.934Z,5.10
2018-05-11T13:33:21.745Z,3.90
2018-05-11T13:34:21.639Z,7.70
2018-05-11T13:36:15.572Z,5.10
2018-05-11T13:37:15.163Z,4.80
2018-05-11T13:39:08.415Z,6.00
2018-05-11T13:40:08.429Z,5.00
2018-05-11T13:42:01.898Z,6.10
2018-05-11T13:43:02.253Z,7.10
2018-05-11T13:44:55.152Z,6.20
2018-05-11T13:45:55.242Z,5.90
2018-05-11T13:47:48.534Z,7.40
2018-05-11T13:48:48.547Z,5.20
2018-05-11T13:50:43.545Z,8.90
2018-05-11T13:51:41.920Z,7.70
2018-05-11T13:53:35.368Z,6.10
2018-05-11T13:54:35.417Z,5.50
2018-05-11T13:56:29.032Z,5.00
2018-05-11T13:57:29.364Z,4.70
2018-05-11T13:59:22.179Z,5.40
2018-05-11T14:00:21.941Z,5.80
2018-05-11T14:02:16.704Z,4.40
2018-05-11T14:03:15.574Z,5.50
2018-05-11T14:05:09.473Z,4.90
2018-05-11T14:06:08.564Z,5.10
2018-05-11T14:08:02.789Z,4.90
2018-05-11T14:09:02.313Z,4.70
2018-05-11T14:10:55.810Z,5.40
2018-05-11T14:11:55.736Z,4.40
2018-05-11T14:13:49.152Z,4.90
2018-05-11T14:14:48.839Z,9.20
2018-05-11T14:16:43.100Z,5.00
2018-05-11T14:17:42.650Z,6.70
2018-05-11T14:19:35.942Z,8.50
2018-05-11T14:20:36.436Z,3.70
2018-05-11T14:22:29.334Z,6.00
2018-05-11T14:23:29.038Z,4.30
2018-05-11T14:25:22.793Z,6.30
2018-05-11T14:26:22.524Z,5.00
2018-05-11T14:28:16.731Z,5.20
2018-05-11T14:29:16.139Z,5.90
2018-05-11T14:31:09.424Z,4.70
2018-05-11T14:32:09.159Z,4.10
2018-05-11T14:34:03.395Z,7.40
2018-05-11T14:35:02.516Z,5.10
2018-05-11T14:36:55.971Z,6.80
2018-05-11T14:37:56.471Z,6.90
2018-05-11T14:39:50.272Z,4.80
2018-05-11T14:40:48.978Z,5.60
2018-05-11T14:42:45.135Z,7.20
2018-05-11T14:43:42.775Z,7.40
2018-05-11T14:45:36.195Z,5.50
2018-05-11T14:46:36.698Z,6.10
2018-05-11T14:48:30.535Z,7.60
2018-05-11T14:49:30.965Z,5.70
2018-05-11T14:51:23.010Z,5.20
2018-05-11T14:52:22.650Z,5.70
2018-05-11T14:54:35.150Z,4.60
2018-05-11T14:56:49.605Z,3.30
2018-05-11T14:57:48.394Z,6.00
2018-05-11T14:59:42.469Z,4.00
2018-05-11T15:00:41.606Z,4.90
2018-05-11T15:02:35.477Z,9.70
2018-05-11T15:03:34.960Z,6.10
2018-05-11T15:05:28.768Z,8.80
2018-05-11T15:06:29.327Z,10.00
2018-05-11T15:08:22.858Z,6.80
2018-05-11T15:09:22.529Z,4.50
2018-05-11T15:11:16.250Z,6.90
2018-05-11T15:12:16.289Z,6.10
2018-05-11T15:14:20.875Z,6.10
2018-05-11T15:15:21.270Z,5.20
2018-05-11T15:17:14.558Z,5.80
2018-05-11T15:18:14.630Z,6.30
2018-05-11T15:20:08.314Z,6.40
2018-05-11T15:21:07.946Z,5.40
2018-05-11T15:23:03.401Z,10.90
2018-05-11T15:24:02.362Z,8.20
2018-05-11T15:25:55.865Z,4.00
2018-05-11T15:26:56.436Z,6.10
2018-05-11T15:28:58.404Z,6.90
2018-05-11T15:29:49.158Z,5.80
2018-05-11T15:31:43.197Z,7.40
2018-05-11T15:32:42.691Z,6.60
2018-05-11T15:34:36.607Z,6.80
2018-05-11T15:35:36.306Z,7.40
2018-05-11T15:37:28.919Z,4.80
2018-05-11T15:38:28.898Z,5.70
2018-05-11T15:40:22.584Z,7.20
2018-05-11T15:41:22.545Z,20.00
2018-05-11T15:43:15.301Z,6.20
2018-05-11T15:45:29.343Z,5.10
2018-05-11T15:46:30.415Z,4.80
2018-05-11T15:48:21.826Z,9.10
2018-05-11T15:49:21.788Z,6.90
2018-05-11T15:51:17.241Z,5.80
2018-05-11T15:52:18.129Z,6.40
2018-05-11T15:54:20.229Z,10.10
2018-05-11T15:55:14.091Z,10.00
2018-05-11T15:57:07.629Z,64.00
2018-05-11T15:58:06.252Z,90.80
2018-05-11T16:00:02.120Z,16.30
2018-05-11T16:01:02.118Z,13.00
2018-05-11T16:02:53.357Z,8.10
2018-05-11T16:03:53.403Z,6.30
2018-05-11T16:05:48.075Z,6.20
2018-05-11T16:06:46.924Z,5.40
2018-05-11T16:08:40.771Z,6.40
2018-05-11T16:09:41.651Z,7.40
2018-05-11T16:11:34.065Z,10.70
2018-05-11T16:12:35.704Z,7.30
2018-05-11T16:14:28.413Z,7.00
2018-05-11T16:15:27.115Z,4.60
2018-05-11T16:17:20.952Z,8.20
2018-05-11T16:18:21.419Z,4.60
2018-05-11T16:20:15.765Z,5.60
2018-05-11T16:21:17.423Z,6.40
2018-05-11T16:23:10.197Z,7.30
2018-05-11T16:24:09.291Z,7.80
2018-05-11T16:26:02.606Z,11.20
2018-05-11T16:27:01.599Z,9.80
2018-05-11T16:28:55.393Z,5.20
2018-05-11T16:29:55.821Z,8.60
2018-05-11T16:31:49.930Z,7.30
2018-05-11T16:32:51.820Z,11.50
2018-05-11T16:35:32.706Z,8.60
2018-05-11T16:36:32.699Z,12.00
2018-05-11T16:38:29.209Z,15.30
2018-05-11T16:39:28.250Z,7.70
2018-05-11T16:41:20.503Z,40.10
2018-05-11T16:42:19.052Z,45.10
2018-05-11T16:44:20.399Z,18.50
2018-05-11T16:45:13.579Z,20.60
2018-05-11T16:47:06.398Z,15.60
2018-05-11T16:48:06.975Z,7.40
2018-05-11T16:50:02.168Z,10.40
2018-05-11T16:51:00.821Z,7.00
2018-05-11T16:52:53.768Z,8.50
2018-05-11T16:53:54.929Z,34.20
2018-05-11T16:55:46.734Z,39.10
2018-05-11T16:56:47.236Z,26.30
2018-05-11T16:58:54.522Z,11.00
2018-05-11T16:59:55.014Z,12.80
2018-05-11T17:01:49.379Z,9.80
2018-05-11T17:04:55.950Z,8.50
2018-05-11T17:05:55.939Z,7.80
2018-05-11T17:07:49.401Z,9.30
2018-05-11T17:08:49.077Z,8.70
2018-05-11T17:10:43.427Z,5.20
2018-05-11T17:11:43.831Z,6.60
2018-05-11T17:13:38.200Z,14.10
2018-05-11T17:14:37.644Z,15.30
2018-05-11T17:16:30.083Z,8.00
2018-05-11T17:17:30.048Z,10.10
2018-05-11T17:19:23.468Z,37.30
2018-05-11T17:20:23.919Z,40.60
2018-05-11T17:22:16.834Z,10.70
2018-05-11T17:23:16.774Z,8.00
2018-05-11T17:25:10.210Z,12.20
2018-05-11T17:26:11.186Z,27.60
2018-05-11T17:28:04.654Z,11.70
2018-05-11T17:29:03.583Z,8.60
2018-05-11T17:30:58.118Z,8.40
2018-05-11T17:31:58.447Z,9.90
2018-05-11T17:33:52.639Z,12.00
2018-05-11T17:34:52.453Z,8.30
2018-05-11T17:36:44.905Z,5.80
2018-05-11T17:37:44.290Z,8.50
2018-05-11T17:39:38.294Z,5.50
2018-05-11T17:40:37.701Z,7.50
2018-05-11T17:42:32.210Z,11.10
2018-05-11T17:43:30.662Z,8.20
2018-05-11T17:45:25.014Z,9.30
2018-05-11T17:46:24.034Z,6.60
2018-05-11T17:48:17.915Z,5.20
2018-05-11T17:49:17.837Z,7.70
2018-05-11T17:51:11.727Z,6.50
2018-05-11T17:52:11.236Z,6.30
2018-05-11T17:54:04.619Z,7.80
2018-05-11T17:55:04.563Z,6.70
2018-05-11T17:56:58.029Z,5.90
2018-05-11T17:57:57.994Z,7.70
2018-05-11T18:00:07.151Z,6.40
2018-05-11T18:01:06.010Z,6.90
2018-05-11T18:03:00.915Z,15.90
2018-05-11T18:04:01.123Z,10.20
2018-05-11T18:05:54.333Z,15.50
2018-05-11T18:06:54.296Z,16.50
2018-05-11T18:08:46.030Z,10.30
2018-05-11T18:09:45.576Z,11.20
2018-05-11T18:11:39.371Z,8.10
2018-05-11T18:12:38.927Z,12.70
2018-05-11T18:14:32.327Z,8.00
2018-05-11T18:15:32.027Z,6.40
2018-05-11T18:17:26.347Z,9.70
2018-05-11T18:18:25.735Z,15.10
2018-05-11T18:20:19.149Z,6.00
2018-05-11T18:21:19.114Z,6.70
2018-05-11T18:23:14.121Z,7.20
2018-05-11T18:24:13.496Z,7.80
2018-05-11T18:26:06.730Z,6.00
2018-05-11T18:27:06.871Z,9.30
2018-05-11T18:29:00.845Z,12.60
2018-05-11T18:29:59.696Z,9.30
2018-05-11T18:31:54.507Z,6.20
2018-05-11T18:32:54.416Z,7.50
2018-05-11T18:34:52.404Z,9.30
2018-05-11T18:35:47.701Z,7.50
2018-05-11T18:37:42.949Z,9.80
2018-05-11T18:38:41.515Z,8.00
2018-05-11T18:40:33.802Z,8.00
2018-05-11T18:41:34.315Z,7.30
2018-05-11T18:43:28.273Z,7.90
2018-05-11T18:44:27.128Z,7.50
2018-05-11T18:46:22.041Z,6.70
2018-05-11T18:47:21.011Z,6.70
2018-05-11T18:49:14.721Z,10.00
2018-05-11T18:50:13.578Z,9.50
2018-05-11T18:52:09.123Z,6.30
2018-05-11T18:53:08.113Z,6.40
2018-05-11T18:55:01.399Z,9.80
2018-05-11T18:56:02.186Z,8.00
2018-05-11T18:57:53.785Z,6.80
2018-05-11T18:58:53.687Z,6.80
2018-05-11T19:00:47.210Z,7.70
2018-05-11T19:01:46.802Z,9.50
2018-05-11T19:03:41.461Z,6.80
2018-05-11T19:04:40.417Z,8.20
2018-05-11T19:06:34.611Z,9.10
2018-05-11T19:07:34.341Z,8.10